Time;durP1;ratioP1;P1;durP2;ratioP2;P2;SDS_P1;SDS_P2;PMS_P1;PMS_P2;Temp;Humidity;BMP_temperature;BMP_pressure;BME280_temperature;BME280_humidity;BME280_pressure;Samples;Min_cycle;Max_cycle;Signal;HPM_P1;HPM_P2
2023/10/16 00:01:10;;;;;;;4.03;0.93;;;6.30;99.90;;;;;;5080734;28;20267;-43
2023/10/16 00:03:41;;;;;;;5.80;1.43;;;6.30;99.90;;;;;;5084616;28;20195;-51
2023/10/16 00:06:11;;;;;;;5.60;1.10;;;6.30;99.90;;;;;;5082896;28;21019;-43
2023/10/16 00:08:46;;;;;;;4.00;1.00;;;6.30;99.90;;;;;;5084391;28;20263;-50
2023/10/16 00:11:16;;;;;;;3.03;0.90;;;6.30;99.90;;;;;;5033359;28;20335;-42
2023/10/16 00:13:47;;;;;;;1.73;0.80;;;6.30;99.90;;;;;;5081574;28;20216;-51
2023/10/16 00:16:16;;;;;;;9.90;1.17;;;6.30;99.90;;;;;;5083942;28;20225;-45
2023/10/16 00:18:45;;;;;;;3.30;0.80;;;6.30;99.90;;;;;;5081829;28;20610;-50
2023/10/16 00:21:13;;;;;;;4.87;0.60;;;6.30;99.90;;;;;;5088039;28;20241;-42
2023/10/16 00:23:40;;;;;;;1.73;0.80;;;6.30;99.90;;;;;;5086980;28;20695;-51
2023/10/16 00:26:09;;;;;;;4.07;1.27;;;6.30;99.90;;;;;;5084700;28;20235;-45
2023/10/16 00:28:44;;;;;;;4.83;1.30;;;6.40;99.90;;;;;;5054344;28;20437;-52
2023/10/16 00:31:12;;;;;;;4.90;0.90;;;6.40;99.90;;;;;;5083723;28;20217;-44
2023/10/16 00:33:40;;;;;;;5.30;1.00;;;6.40;99.90;;;;;;5082484;28;20229;-51
2023/10/16 00:36:07;;;;;;;7.77;0.93;;;6.40;99.90;;;;;;5051183;28;20801;-44
2023/10/16 00:38:37;;;;;;;5.30;0.70;;;6.50;99.90;;;;;;5083444;28;20198;-50
2023/10/16 00:41:16;;;;;;;1.90;0.80;;;6.50;99.90;;;;;;5089524;28;20209;-46
2023/10/16 00:43:44;;;;;;;3.13;0.70;;;6.50;99.90;;;;;;5038704;28;20201;-49
2023/10/16 00:46:19;;;;;;;5.03;1.10;;;6.50;99.90;;;;;;5087260;28;20177;-46
2023/10/16 00:48:47;;;;;;;1.23;0.63;;;6.50;99.90;;;;;;5069037;28;20224;-49
2023/10/16 00:51:16;;;;;;;4.33;0.90;;;6.50;99.90;;;;;;5093796;28;20251;-43
2023/10/16 00:53:44;;;;;;;4.47;0.90;;;6.50;99.90;;;;;;5090546;28;20686;-48
2023/10/16 00:56:13;;;;;;;3.87;0.90;;;6.60;99.90;;;;;;5069453;28;20215;-43
2023/10/16 00:58:41;;;;;;;2.87;0.80;;;6.60;99.90;;;;;;5075236;28;20204;-52
2023/10/16 01:01:12;;;;;;;3.30;1.33;;;6.60;99.90;;;;;;5079135;28;20300;-43
2023/10/16 01:03:42;;;;;;;3.23;0.70;;;6.60;99.90;;;;;;5067612;28;20584;-48
2023/10/16 01:06:16;;;;;;;3.13;1.03;;;6.60;99.90;;;;;;5068402;28;20454;-44
2023/10/16 01:08:49;;;;;;;4.63;0.57;;;6.60;99.90;;;;;;5087472;28;20189;-51
2023/10/16 01:11:18;;;;;;;0.83;0.70;;;6.60;99.90;;;;;;5087430;28;20747;-44
2023/10/16 01:13:47;;;;;;;1.97;0.60;;;6.60;99.90;;;;;;5062335;28;20214;-51
2023/10/16 01:16:16;;;;;;;1.70;0.60;;;6.60;99.90;;;;;;5081677;28;20324;-45
2023/10/16 01:18:45;;;;;;;1.63;0.50;;;6.70;99.90;;;;;;5065100;28;20684;-51
2023/10/16 01:21:14;;;;;;;2.57;0.60;;;6.70;99.90;;;;;;5084023;28;20221;-48
2023/10/16 01:23:44;;;;;;;3.77;1.00;;;6.70;99.90;;;;;;5063065;28;20194;-49
2023/10/16 01:26:13;;;;;;;1.90;0.67;;;6.70;99.90;;;;;;5081779;28;20182;-43
2023/10/16 01:28:40;;;;;;;3.17;0.60;;;6.70;99.90;;;;;;5067936;28;20202;-48
2023/10/16 01:31:07;;;;;;;1.70;0.70;;;6.70;99.90;;;;;;5067074;28;20221;-43
2023/10/16 01:33:34;;;;;;;3.23;0.60;;;6.80;99.90;;;;;;5083526;28;20206;-53
2023/10/16 01:36:03;;;;;;;6.17;0.87;;;6.80;99.90;;;;;;5081599;28;20315;-43
2023/10/16 01:38:31;;;;;;;3.23;0.60;;;6.80;99.90;;;;;;5081549;28;20201;-45
2023/10/16 01:41:04;;;;;;;1.73;0.70;;;6.80;99.90;;;;;;5065901;28;20917;-46
2023/10/16 01:43:32;;;;;;;3.13;0.63;;;6.80;99.90;;;;;;5087187;28;20208;-43
2023/10/16 01:46:02;;;;;;;4.23;0.80;;;6.80;99.90;;;;;;5033923;28;20209;-46
2023/10/16 01:48:29;;;;;;;3.07;0.70;;;6.80;99.90;;;;;;5091263;28;20656;-43
2023/10/16 01:50:57;;;;;;;1.70;0.87;;;6.80;99.90;;;;;;5083729;28;20917;-44
2023/10/16 01:53:26;;;;;;;4.80;1.10;;;6.80;99.90;;;;;;5087845;28;20563;-45
2023/10/16 01:55:55;;;;;;;2.70;0.90;;;6.80;99.90;;;;;;5077349;28;20205;-46
2023/10/16 01:58:30;;;;;;;1.97;0.80;;;6.80;99.90;;;;;;5066446;28;20190;-46
2023/10/16 02:00:57;;;;;;;2.93;0.80;;;6.80;99.90;;;;;;5025895;28;20955;-45
2023/10/16 02:03:25;;;;;;;4.40;0.87;;;6.70;99.90;;;;;;5082081;28;20591;-46
2023/10/16 02:05:53;;;;;;;1.63;1.07;;;6.70;99.90;;;;;;5076971;28;20190;-44
2023/10/16 02:08:21;;;;;;;3.90;1.10;;;6.70;99.90;;;;;;5084224;28;20276;-45
2023/10/16 02:10:49;;;;;;;3.70;0.77;;;6.70;99.90;;;;;;5062609;28;20302;-51
2023/10/16 02:13:16;;;;;;;5.07;1.20;;;6.70;99.90;;;;;;5064973;28;20589;-46
2023/10/16 02:15:44;;;;;;;3.80;1.00;;;6.70;99.90;;;;;;5031417;28;20249;-53
2023/10/16 02:18:18;;;;;;;4.07;0.90;;;6.60;99.90;;;;;;5081718;28;20189;-45
2023/10/16 02:20:46;;;;;;;5.93;0.80;;;6.60;99.90;;;;;;5082204;28;20220;-52
2023/10/16 02:23:13;;;;;;;2.33;0.90;;;6.60;99.90;;;;;;5087300;28;20651;-44
2023/10/16 02:25:39;;;;;;;2.93;0.87;;;6.60;99.90;;;;;;5083966;28;20193;-49
2023/10/16 02:28:08;;;;;;;3.30;0.87;;;6.60;99.90;;;;;;5083728;28;20354;-45
2023/10/16 02:30:38;;;;;;;2.47;0.70;;;6.50;99.90;;;;;;5087153;28;20213;-52
2023/10/16 02:33:14;;;;;;;2.77;0.80;;;6.50;99.90;;;;;;5071004;28;20194;-46
2023/10/16 02:35:43;;;;;;;8.13;1.10;;;6.50;99.90;;;;;;5093390;28;20192;-50
2023/10/16 02:38:13;;;;;;;3.73;0.70;;;6.60;99.90;;;;;;5091970;28;20194;-44
2023/10/16 02:40:43;;;;;;;4.03;0.90;;;6.50;99.90;;;;;;5092002;28;20707;-49
2023/10/16 02:43:18;;;;;;;1.37;0.90;;;6.50;99.90;;;;;;5067003;28;20255;-42
2023/10/16 02:45:47;;;;;;;2.30;0.70;;;6.60;99.90;;;;;;5062707;28;20198;-51
2023/10/16 02:48:17;;;;;;;4.40;1.07;;;6.60;99.90;;;;;;5064486;28;20690;-47
2023/10/16 02:50:49;;;;;;;2.83;1.10;;;6.60;99.90;;;;;;5083919;28;20313;-49
2023/10/16 02:53:21;;;;;;;4.43;1.30;;;6.60;99.90;;;;;;5087903;28;20194;-43
2023/10/16 02:55:53;;;;;;;2.37;1.17;;;6.60;99.90;;;;;;5065791;28;20288;-50
2023/10/16 02:58:23;;;;;;;5.10;1.30;;;6.60;99.90;;;;;;5089411;28;20280;-47
2023/10/16 03:00:53;;;;;;;3.23;1.40;;;6.60;99.90;;;;;;5085319;28;20224;-49
2023/10/16 03:03:24;;;;;;;3.57;1.57;;;6.60;99.90;;;;;;5058641;28;20225;-47
2023/10/16 03:05:52;;;;;;;2.93;1.33;;;6.60;99.90;;;;;;5067132;28;20737;-50
2023/10/16 03:08:22;;;;;;;6.20;1.57;;;6.60;99.90;;;;;;5092475;28;20285;-47
2023/10/16 03:10:49;;;;;;;5.63;1.20;;;6.60;99.90;;;;;;5071460;28;20233;-50
2023/10/16 03:13:18;;;;;;;1.90;1.30;;;6.60;99.90;;;;;;5091336;28;20251;-43
2023/10/16 03:15:47;;;;;;;4.43;1.20;;;6.60;99.90;;;;;;5088613;28;20190;-48
2023/10/16 03:18:17;;;;;;;4.23;1.50;;;6.60;99.90;;;;;;5039188;28;20229;-43
2023/10/16 03:20:47;;;;;;;4.10;1.20;;;6.60;99.90;;;;;;5087251;28;20209;-51
2023/10/16 03:23:18;;;;;;;2.23;1.13;;;6.70;99.90;;;;;;5095051;28;20211;-48
2023/10/16 03:25:54;;;;;;;8.97;1.67;;;6.70;99.90;;;;;;5089464;28;20189;-52
2023/10/16 03:28:21;;;;;;;3.87;1.40;;;6.70;99.90;;;;;;5091948;28;20250;-45
2023/10/16 03:30:49;;;;;;;3.57;1.23;;;6.70;99.90;;;;;;5088600;28;20248;-50
2023/10/16 03:33:16;;;;;;;2.33;1.50;;;6.60;99.90;;;;;;5091588;28;20653;-43
2023/10/16 03:35:45;;;;;;;5.37;1.60;;;6.60;99.90;;;;;;5053023;28;20238;-52
2023/10/16 03:38:24;;;;;;;1.60;1.50;;;6.60;99.90;;;;;;5088651;28;20556;-43
2023/10/16 03:40:52;;;;;;;5.07;1.30;;;6.60;99.90;;;;;;5083590;28;20275;-48
2023/10/16 03:43:20;;;;;;;4.43;1.80;;;6.50;99.90;;;;;;5090008;28;20269;-43
2023/10/16 03:45:47;;;;;;;6.50;1.47;;;6.60;99.90;;;;;;5081535;28;20197;-49
2023/10/16 03:48:16;;;;;;;7.03;1.93;;;6.50;99.90;;;;;;5086633;28;20816;-47
2023/10/16 03:50:43;;;;;;;2.80;1.30;;;6.60;99.90;;;;;;5051334;28;20221;-48
2023/10/16 03:53:13;;;;;;;5.47;1.47;;;6.60;99.90;;;;;;5085344;28;20413;-46
2023/10/16 03:55:46;;;;;;;2.50;1.40;;;6.60;99.90;;;;;;5094933;28;20193;-47
2023/10/16 03:58:13;;;;;;;5.63;2.20;;;6.60;99.90;;;;;;5084429;28;20229;-43
2023/10/16 04:00:56;;;;;;;5.97;1.60;;;6.60;99.90;;;;;;5084654;28;20214;-52
2023/10/16 04:03:25;;;;;;;4.20;1.73;;;6.60;99.90;;;;;;5086448;28;20612;-44
2023/10/16 04:05:53;;;;;;;6.47;1.20;;;6.60;99.90;;;;;;5049785;28;20798;-43
2023/10/16 04:08:23;;;;;;;3.97;1.80;;;6.60;99.90;;;;;;5087067;28;20517;-44
2023/10/16 04:10:53;;;;;;;4.97;1.33;;;6.60;99.90;;;;;;5084937;28;20245;-49
2023/10/16 04:13:25;;;;;;;3.30;1.40;;;6.60;99.90;;;;;;5068143;28;20195;-45
2023/10/16 04:16:10;;;;;;;3.27;1.30;;;6.60;99.90;;;;;;5082012;28;20718;-46
2023/10/16 04:18:39;;;;;;;3.97;1.60;;;6.60;99.90;;;;;;5082949;28;20554;-51
2023/10/16 04:23:53;;;;;;;5.17;1.60;;;6.70;99.90;;;;;;5086810;28;20202;-50
2023/10/16 04:26:45;;;;;;;2.17;1.17;;;6.70;99.90;;;;;;5091219;28;20186;-43
2023/10/16 04:29:28;;;;;;;4.03;1.60;;;6.70;99.90;;;;;;5089768;28;20303;-44
2023/10/16 04:32:20;;;;;;;3.80;1.53;;;6.70;99.90;;;;;;5085972;28;20193;-43
2023/10/16 04:34:53;;;;;;;6.50;1.40;;;6.70;99.90;;;;;;5067763;28;20197;-53
2023/10/16 04:37:36;;;;;;;2.27;1.20;;;6.70;99.90;;;;;;5081253;28;20263;-46
2023/10/16 04:43:09;;;;;;;5.13;1.50;;;6.80;99.90;;;;;;5088140;28;20547;-51
2023/10/16 04:51:16;;;;;;;4.50;2.27;;;6.90;99.90;;;;;;5046882;28;20233;-43
2023/10/16 04:54:13;;;;;;;6.53;1.90;;;6.90;99.90;;;;;;5082888;28;20262;-51
2023/10/16 05:02:33;;;;;;;3.83;2.30;;;7.00;99.90;;;;;;5083120;28;20560;-43
2023/10/16 05:05:32;;;;;;;5.83;2.20;;;7.00;99.90;;;;;;5077910;28;20201;-47
2023/10/16 05:07:53;;;;;;;5.27;2.37;;;7.00;99.90;;;;;;5051645;28;20209;-52
2023/10/16 05:10:51;;;;;;;4.47;2.53;;;7.00;99.90;;;;;;5088402;28;20263;-46
2023/10/16 05:13:39;;;;;;;2.57;2.17;;;7.10;99.90;;;;;;5085145;28;20255;-43
2023/10/16 05:19:03;;;;;;;4.07;2.80;;;7.10;99.90;;;;;;5080630;28;20189;-47
2023/10/16 06:16:32;;;;;;;5.93;2.87;;;7.50;99.90;;;;;;5076302;28;20198;-43
2023/10/16 06:19:02;;;;;;;5.43;3.20;;;7.50;99.90;;;;;;5089463;28;20926;-48
2023/10/16 06:21:30;;;;;;;4.97;3.40;;;7.50;99.90;;;;;;5083332;28;20617;-49
2023/10/16 06:23:56;;;;;;;4.60;3.03;;;7.50;99.90;;;;;;5060665;28;20193;-44
2023/10/16 06:26:27;;;;;;;5.10;3.40;;;7.50;99.90;;;;;;5071177;28;20206;-43
2023/10/16 06:28:54;;;;;;;4.43;3.47;;;7.50;99.90;;;;;;5084148;28;20201;-51
2023/10/16 06:31:23;;;;;;;6.90;3.23;;;7.60;99.90;;;;;;5075338;28;20240;-43
2023/10/16 06:33:54;;;;;;;5.00;3.50;;;7.60;99.90;;;;;;5084318;28;20263;-50
2023/10/16 06:36:21;;;;;;;5.43;3.33;;;7.60;99.90;;;;;;5082428;28;20292;-45
2023/10/16 06:38:51;;;;;;;7.63;3.90;;;7.60;99.90;;;;;;5071119;28;20190;-46
2023/10/16 06:41:19;;;;;;;7.17;3.90;;;7.60;99.90;;;;;;5070277;28;20213;-43
2023/10/16 06:43:47;;;;;;;9.73;3.93;;;7.60;99.90;;;;;;5083420;28;20198;-49
2023/10/16 06:46:21;;;;;;;6.90;3.83;;;7.70;99.90;;;;;;5074131;28;20220;-43
2023/10/16 06:48:49;;;;;;;3.87;2.83;;;7.70;99.90;;;;;;5087887;28;20205;-52
2023/10/16 06:51:16;;;;;;;4.63;3.80;;;7.70;99.90;;;;;;5080693;28;20201;-47
2023/10/16 06:53:44;;;;;;;6.67;3.50;;;7.70;99.90;;;;;;5081403;28;20198;-49
2023/10/16 06:56:27;;;;;;;7.17;3.87;;;7.70;99.90;;;;;;5050883;28;20214;-43
2023/10/16 06:58:56;;;;;;;4.43;3.90;;;7.80;99.90;;;;;;5076522;28;20194;-50
2023/10/16 07:01:25;;;;;;;6.47;4.17;;;7.80;99.90;;;;;;5073078;28;20232;-43
2023/10/16 07:03:54;;;;;;;6.60;4.03;;;7.80;99.90;;;;;;5082268;28;20205;-50
2023/10/16 07:06:24;;;;;;;5.73;4.13;;;7.80;99.90;;;;;;5082849;28;20197;-45
2023/10/16 07:08:52;;;;;;;7.57;4.07;;;7.90;99.90;;;;;;5080669;28;20269;-52
2023/10/16 07:11:21;;;;;;;7.87;4.50;;;7.90;99.90;;;;;;5053467;28;20884;-48
2023/10/16 07:13:48;;;;;;;5.70;3.47;;;8.00;99.90;;;;;;5082971;28;20667;-46
2023/10/16 07:16:16;;;;;;;6.53;4.20;;;8.00;99.90;;;;;;5081759;28;20292;-46
2023/10/16 07:18:43;;;;;;;9.43;4.90;;;8.00;99.90;;;;;;5077057;28;20233;-47
2023/10/16 07:21:17;;;;;;;9.17;4.30;;;8.00;99.90;;;;;;5084853;28;20206;-44
2023/10/16 07:23:45;;;;;;;4.67;3.90;;;8.00;99.90;;;;;;5085999;28;20201;-46
2023/10/16 07:26:16;;;;;;;6.00;4.00;;;8.10;99.90;;;;;;5066090;28;20220;-45
2023/10/16 07:28:48;;;;;;;9.60;4.10;;;8.10;99.90;;;;;;5095605;28;20265;-47
2023/10/16 07:31:16;;;;;;;5.30;3.83;;;8.10;99.90;;;;;;5091574;28;20882;-44
2023/10/16 07:33:45;;;;;;;9.00;3.20;;;8.20;99.90;;;;;;5081962;28;20270;-47
2023/10/16 07:36:12;;;;;;;7.10;3.83;;;8.20;99.90;;;;;;5085016;28;20914;-45
2023/10/16 07:38:40;;;;;;;5.83;3.43;;;8.20;99.90;;;;;;5085402;28;20214;-45
2023/10/16 07:41:09;;;;;;;6.13;3.37;;;8.20;99.90;;;;;;5090674;28;20201;-46
2023/10/16 07:43:36;;;;;;;3.87;3.00;;;8.30;99.90;;;;;;5070803;28;20209;-44
2023/10/16 07:48:51;;;;;;;5.57;3.63;;;8.40;99.90;;;;;;5066092;28;20214;-47
2023/10/16 07:51:20;;;;;;;5.03;2.90;;;8.40;99.90;;;;;;5084370;28;20316;-47
2023/10/16 07:53:49;;;;;;;3.97;3.20;;;8.40;99.90;;;;;;5086628;28;20197;-47
2023/10/16 07:56:25;;;;;;;4.27;3.00;;;8.50;99.90;;;;;;5088660;28;20875;-47
2023/10/16 07:58:56;;;;;;;7.67;3.30;;;8.50;99.90;;;;;;5062076;28;20216;-47
2023/10/16 08:01:41;;;;;;;4.13;2.70;;;8.50;99.90;;;;;;5088595;28;20216;-45
2023/10/16 08:04:19;;;;;;;4.10;2.70;;;8.60;99.90;;;;;;5073928;28;20186;-46
2023/10/16 08:06:47;;;;;;;3.90;2.47;;;8.60;99.90;;;;;;5084653;28;20229;-50
2023/10/16 08:09:48;;;;;;;7.23;2.57;;;8.70;99.90;;;;;;5082506;28;20202;-48
2023/10/16 08:14:56;;;;;;;5.00;2.10;;;8.70;99.90;;;;;;5066336;28;20213;-48
2023/10/16 08:17:25;;;;;;;4.50;2.57;;;8.70;99.90;;;;;;5088520;28;20591;-47
2023/10/16 08:19:52;;;;;;;3.23;2.57;;;8.80;99.90;;;;;;5086475;28;20255;-46
2023/10/16 08:22:25;;;;;;;4.50;2.10;;;8.90;99.90;;;;;;5084550;28;20186;-46
2023/10/16 08:24:59;;;;;;;3.10;2.20;;;8.90;99.90;;;;;;5081163;28;20725;-45
2023/10/16 08:30:17;;;;;;;4.03;2.20;;;9.00;99.90;;;;;;5064666;28;20205;-47
2023/10/16 08:32:54;;;;;;;6.33;1.73;;;9.00;99.90;;;;;;5088345;28;20189;-50
2023/10/16 08:35:21;;;;;;;4.53;1.90;;;9.00;99.90;;;;;;5085188;28;20201;-45
2023/10/16 08:37:56;;;;;;;5.23;2.10;;;9.00;99.90;;;;;;5082949;28;20194;-48
2023/10/16 08:40:32;;;;;;;4.63;2.00;;;9.10;99.90;;;;;;5085022;28;20250;-44
2023/10/16 08:43:02;;;;;;;6.90;2.20;;;9.20;99.90;;;;;;5089254;28;20268;-47
2023/10/16 08:45:32;;;;;;;5.30;1.63;;;9.20;99.90;;;;;;5067876;28;20209;-47
2023/10/16 08:48:05;;;;;;;1.97;1.50;;;9.30;99.90;;;;;;5084312;28;20190;-49
2023/10/16 08:50:41;;;;;;;3.07;1.30;;;9.30;99.90;;;;;;5076479;28;20226;-45
2023/10/16 08:53:17;;;;;;;1.67;1.40;;;9.30;99.90;;;;;;5083711;28;20251;-45
2023/10/16 08:55:45;;;;;;;5.20;1.60;;;9.30;99.90;;;;;;5086973;28;20687;-48
2023/10/16 08:58:15;;;;;;;4.07;2.03;;;9.40;99.90;;;;;;5089917;28;20214;-45
2023/10/16 09:00:42;;;;;;;3.43;1.70;;;9.60;99.90;;;;;;5068647;28;20310;-47
2023/10/16 09:03:11;;;;;;;2.70;1.70;;;9.70;99.90;;;;;;5084133;28;20182;-48
2023/10/16 09:05:38;;;;;;;2.73;1.53;;;9.70;99.90;;;;;;5082912;28;20272;-47
2023/10/16 09:08:06;;;;;;;1.87;1.40;;;9.80;99.90;;;;;;5083079;28;20193;-47
2023/10/16 09:10:33;;;;;;;4.63;1.30;;;9.90;99.90;;;;;;5089913;28;20225;-46
2023/10/16 09:13:13;;;;;;;3.17;1.20;;;9.80;99.90;;;;;;5081637;28;20194;-49
2023/10/16 09:15:45;;;;;;;2.60;1.30;;;9.70;99.90;;;;;;5066466;28;20632;-46
2023/10/16 09:18:14;;;;;;;1.77;1.60;;;9.70;99.90;;;;;;5083361;28;20209;-48
2023/10/16 09:20:42;;;;;;;3.90;1.00;;;9.80;99.90;;;;;;5084464;28;20263;-47
2023/10/16 09:23:13;;;;;;;5.27;1.37;;;9.90;99.90;;;;;;5075656;28;20186;-45
2023/10/16 09:25:44;;;;;;;2.43;1.00;;;9.90;99.90;;;;;;5084570;28;20194;-50
2023/10/16 09:28:16;;;;;;;3.27;1.17;;;9.90;99.90;;;;;;5078856;28;20182;-46
2023/10/16 09:30:45;;;;;;;3.47;1.30;;;9.90;99.90;;;;;;5082910;28;20274;-47
2023/10/16 09:33:15;;;;;;;4.67;1.43;;;9.90;99.90;;;;;;5080686;28;20186;-45
2023/10/16 09:35:44;;;;;;;2.67;1.33;;;9.90;99.90;;;;;;5086931;28;20691;-47
2023/10/16 09:38:17;;;;;;;1.60;0.97;;;9.90;99.90;;;;;;5076937;28;20943;-47
2023/10/16 09:40:58;;;;;;;2.07;1.07;;;9.90;99.90;;;;;;5081799;28;20576;-47
2023/10/16 09:43:24;;;;;;;5.73;1.27;;;9.90;99.90;;;;;;5092000;28;20198;-46
2023/10/16 09:46:27;;;;;;;5.50;1.30;;;9.90;99.90;;;;;;5083042;28;20265;-45
2023/10/16 09:48:47;;;;;;;4.73;1.20;;;9.90;99.90;;;;;;5087384;28;20204;-50
2023/10/16 09:51:14;;;;;;;6.83;1.17;;;9.90;99.90;;;;;;5078668;28;20921;-49
2023/10/16 09:53:41;;;;;;;6.10;1.00;;;10.00;99.90;;;;;;5085954;28;20186;-46
2023/10/16 09:56:12;;;;;;;1.67;1.23;;;10.00;99.90;;;;;;5082480;28;20190;-50
2023/10/16 09:58:44;;;;;;;3.07;1.03;;;10.00;99.90;;;;;;5088128;28;20221;-47
2023/10/16 10:01:21;;;;;;;5.03;1.43;;;10.00;99.90;;;;;;5064223;28;20225;-46
2023/10/16 10:03:50;;;;;;;5.80;1.27;;;10.10;99.90;;;;;;5085908;28;20202;-47
2023/10/16 10:06:21;;;;;;;2.70;1.00;;;10.20;99.90;;;;;;5085686;28;20239;-48
2023/10/16 10:09:22;;;;;;;1.33;0.90;;;10.20;99.90;;;;;;5077356;28;20194;-47
2023/10/16 10:12:08;;;;;;;5.73;1.00;;;10.30;99.90;;;;;;5084066;28;20632;-48
2023/10/16 10:14:40;;;;;;;6.10;1.30;;;10.30;99.90;;;;;;5089644;28;20200;-45
2023/10/16 10:17:10;;;;;;;2.20;0.83;;;10.20;99.90;;;;;;5062958;28;20201;-47
2023/10/16 10:19:40;;;;;;;4.07;1.10;;;10.30;99.90;;;;;;5085502;28;20217;-48
2023/10/16 10:22:16;;;;;;;3.63;1.07;;;10.30;99.90;;;;;;5074824;28;20220;-45
2023/10/16 10:24:48;;;;;;;2.30;0.70;;;10.30;99.90;;;;;;5087799;28;20251;-47
2023/10/16 10:27:16;;;;;;;1.67;0.93;;;10.30;99.90;;;;;;5084087;28;20894;-49
2023/10/16 10:29:47;;;;;;;3.43;0.83;;;10.40;99.90;;;;;;5085461;28;20372;-49
2023/10/16 10:32:15;;;;;;;2.67;0.97;;;10.40;99.90;;;;;;5082231;28;20270;-48
2023/10/16 10:34:45;;;;;;;3.97;0.80;;;10.40;99.90;;;;;;5065855;28;20275;-47
2023/10/16 10:37:44;;;;;;;2.33;1.00;;;10.40;99.90;;;;;;5073197;28;20194;-47
2023/10/16 10:40:15;;;;;;;6.13;1.10;;;10.50;99.90;;;;;;5080149;28;20213;-47
2023/10/16 10:42:42;;;;;;;3.27;0.73;;;10.60;99.90;;;;;;5089348;28;20731;-50
2023/10/16 10:45:20;;;;;;;2.77;1.10;;;10.60;99.90;;;;;;5076672;28;20213;-47
2023/10/16 10:47:47;;;;;;;4.87;1.00;;;10.60;99.90;;;;;;5077581;28;20200;-50
2023/10/16 10:50:17;;;;;;;3.40;0.70;;;10.70;99.90;;;;;;5085618;28;20362;-47
2023/10/16 10:52:46;;;;;;;3.30;0.73;;;10.70;99.90;;;;;;5082829;28;20201;-46
2023/10/16 10:55:19;;;;;;;3.20;0.60;;;10.80;99.90;;;;;;5088884;28;20197;-46
2023/10/16 10:57:48;;;;;;;2.60;0.90;;;10.90;99.90;;;;;;5085891;28;20198;-49
2023/10/16 11:00:43;;;;;;;3.43;0.77;;;10.90;99.90;;;;;;5089636;28;20367;-45
2023/10/16 11:03:22;;;;;;;2.57;0.67;;;11.00;99.90;;;;;;5069940;28;20221;-44
2023/10/16 11:05:51;;;;;;;5.77;0.70;;;11.10;99.90;;;;;;5082522;28;20206;-45
2023/10/16 11:08:22;;;;;;;2.30;0.53;;;11.10;99.90;;;;;;5089284;28;20194;-46
2023/10/16 11:10:50;;;;;;;2.47;0.67;;;11.10;99.90;;;;;;5060557;28;20246;-45
2023/10/16 11:13:18;;;;;;;2.67;0.70;;;11.10;99.90;;;;;;5091815;28;20196;-45
2023/10/16 11:15:52;;;;;;;5.17;1.00;;;11.00;99.90;;;;;;5088708;28;20218;-46
2023/10/16 11:18:20;;;;;;;1.17;0.80;;;11.20;99.90;;;;;;5071819;28;20220;-47
2023/10/16 11:20:53;;;;;;;5.43;0.73;;;11.20;99.90;;;;;;5098548;28;20218;-46
2023/10/16 11:23:21;;;;;;;2.63;0.47;;;11.10;99.90;;;;;;5088366;28;20190;-48
2023/10/16 11:25:51;;;;;;;6.50;1.10;;;11.00;99.90;;;;;;5083913;28;20289;-48
2023/10/16 11:28:21;;;;;;;1.30;0.60;;;11.00;99.90;;;;;;5065641;28;20672;-44
2023/10/16 11:30:53;;;;;;;0.73;0.60;;;11.00;99.90;;;;;;5085678;28;20623;-46
2023/10/16 11:33:34;;;;;;;0.97;0.40;;;11.00;99.90;;;;;;5086736;28;20202;-45
2023/10/16 11:36:06;;;;;;;2.57;0.60;;;11.10;99.90;;;;;;5071905;28;20190;-51
2023/10/16 11:38:34;;;;;;;4.87;0.60;;;11.20;99.90;;;;;;5087148;28;20214;-46
2023/10/16 11:41:09;;;;;;;1.33;0.70;;;11.30;99.90;;;;;;5083049;28;20248;-45
2023/10/16 11:43:38;;;;;;;1.77;0.70;;;11.30;99.90;;;;;;5089828;28;20201;-50
2023/10/16 11:46:27;;;;;;;4.93;1.77;;;11.20;99.90;;;;;;5087196;28;20239;-47
2023/10/16 11:48:56;;;;;;;2.50;0.57;;;11.20;99.90;;;;;;5087509;28;20891;-47
2023/10/16 11:51:26;;;;;;;2.27;0.80;;;11.30;99.90;;;;;;5068950;28;20225;-46
2023/10/16 11:53:59;;;;;;;1.53;0.40;;;11.40;99.90;;;;;;5082714;28;20205;-46
2023/10/16 11:56:26;;;;;;;0.87;0.43;;;11.40;99.90;;;;;;5078412;28;20206;-47
2023/10/16 11:58:55;;;;;;;4.27;0.60;;;11.30;99.90;;;;;;5082372;28;20206;-45
2023/10/16 12:01:21;;;;;;;2.73;0.70;;;11.20;99.90;;;;;;5086195;28;20222;-47
2023/10/16 12:03:48;;;;;;;3.27;0.67;;;11.20;99.90;;;;;;5081279;28;20249;-48
2023/10/16 12:06:17;;;;;;;3.07;0.80;;;11.30;99.90;;;;;;5066609;28;21624;-45
2023/10/16 12:08:45;;;;;;;3.57;0.63;;;11.30;99.90;;;;;;5088636;28;20205;-46
2023/10/16 12:11:14;;;;;;;2.27;0.40;;;11.30;99.90;;;;;;5083824;28;20225;-47
2023/10/16 12:13:41;;;;;;;3.10;0.50;;;11.40;99.90;;;;;;5086566;28;20676;-46
2023/10/16 12:16:08;;;;;;;2.27;0.43;;;11.50;99.90;;;;;;5084181;28;20186;-47
2023/10/16 12:18:35;;;;;;;2.47;0.40;;;11.50;99.90;;;;;;5077301;28;20241;-46
2023/10/16 12:21:05;;;;;;;1.00;0.40;;;11.60;99.90;;;;;;5092014;28;20638;-45
2023/10/16 12:23:33;;;;;;;2.90;0.83;;;11.80;99.90;;;;;;5068905;28;20209;-46
2023/10/16 12:26:02;;;;;;;2.40;0.60;;;11.90;99.90;;;;;;5091156;28;20622;-45
2023/10/16 12:28:31;;;;;;;3.17;0.60;;;11.90;99.90;;;;;;5076679;28;20848;-48
2023/10/16 12:30:59;;;;;;;3.77;0.60;;;12.00;99.90;;;;;;5089913;28;20606;-47
2023/10/16 12:33:26;;;;;;;3.50;0.77;;;12.10;99.90;;;;;;5079523;28;20191;-49
2023/10/16 12:35:55;;;;;;;4.20;0.83;;;12.00;99.90;;;;;;5086511;28;20198;-46
2023/10/16 12:38:23;;;;;;;2.00;0.67;;;12.00;99.90;;;;;;5073837;28;20206;-48
2023/10/16 12:40:55;;;;;;;2.07;0.57;;;11.90;99.90;;;;;;5072451;28;20282;-46
2023/10/16 12:43:27;;;;;;;1.67;0.40;;;11.80;99.90;;;;;;5081303;28;20545;-47
2023/10/16 12:45:56;;;;;;;4.30;0.63;;;11.90;99.90;;;;;;5076583;28;20273;-49
2023/10/16 12:48:24;;;;;;;4.03;0.67;;;11.70;99.90;;;;;;5087784;28;20739;-50
2023/10/16 12:50:51;;;;;;;1.70;0.63;;;11.60;99.90;;;;;;5087368;28;20217;-47
2023/10/16 12:53:20;;;;;;;4.00;0.60;;;11.50;99.90;;;;;;5076008;28;20217;-46
2023/10/16 12:55:49;;;;;;;2.83;1.37;;;11.40;99.90;;;;;;5082565;28;20672;-47
2023/10/16 12:58:18;;;;;;;1.30;0.43;;;11.40;99.90;;;;;;5074774;28;20263;-45
2023/10/16 13:00:50;;;;;;;2.47;0.63;;;11.40;99.90;;;;;;5086582;28;20617;-50
2023/10/16 13:03:19;;;;;;;2.00;0.97;;;11.40;99.90;;;;;;5087459;28;20190;-46
2023/10/16 13:05:46;;;;;;;3.30;0.90;;;11.40;99.90;;;;;;5087193;28;20662;-48
2023/10/16 13:08:13;;;;;;;1.67;0.77;;;11.40;99.90;;;;;;5074449;28;20202;-45
2023/10/16 13:10:39;;;;;;;5.53;0.70;;;11.30;99.90;;;;;;5085811;28;20217;-48
2023/10/16 13:13:06;;;;;;;2.80;0.80;;;11.30;99.90;;;;;;5074425;28;20189;-46
2023/10/16 13:15:33;;;;;;;2.13;0.50;;;11.30;99.90;;;;;;5086440;28;20198;-45
2023/10/16 13:18:02;;;;;;;3.27;0.70;;;11.20;99.90;;;;;;5081816;28;20186;-45
2023/10/16 13:20:29;;;;;;;3.87;0.50;;;11.30;99.90;;;;;;5086671;28;20245;-47
2023/10/16 13:22:57;;;;;;;3.70;0.67;;;11.30;99.90;;;;;;5082621;28;20190;-49
2023/10/16 13:25:30;;;;;;;0.67;0.33;;;11.30;99.90;;;;;;5081985;28;20576;-46
2023/10/16 13:27:59;;;;;;;1.70;0.50;;;11.30;99.90;;;;;;5078158;28;20190;-45
2023/10/16 13:30:26;;;;;;;4.23;0.50;;;11.30;99.90;;;;;;5094471;28;20218;-48
2023/10/16 13:32:54;;;;;;;1.60;0.63;;;11.30;99.90;;;;;;5084566;28;20198;-46
2023/10/16 13:35:23;;;;;;;1.00;0.60;;;11.40;99.90;;;;;;5083547;28;20202;-48
2023/10/16 13:37:51;;;;;;;4.20;0.63;;;11.50;99.90;;;;;;5088105;28;20559;-49
2023/10/16 13:40:21;;;;;;;3.77;1.27;;;11.70;99.90;;;;;;5074214;28;20228;-47
2023/10/16 13:42:54;;;;;;;3.80;0.40;;;11.90;99.90;;;;;;5069003;28;20202;-45
2023/10/16 13:45:21;;;;;;;4.57;0.50;;;12.10;99.90;;;;;;5083365;28;20280;-45
2023/10/16 13:47:49;;;;;;;1.23;0.50;;;12.10;99.90;;;;;;5081567;28;20197;-48
2023/10/16 13:50:24;;;;;;;3.17;0.60;;;12.10;99.90;;;;;;5087919;28;20209;-46
2023/10/16 13:52:53;;;;;;;4.37;1.00;;;12.10;99.90;;;;;;5080923;28;20270;-46
2023/10/16 13:55:21;;;;;;;0.77;0.30;;;12.10;99.90;;;;;;5088156;28;20196;-45
2023/10/16 13:57:49;;;;;;;5.17;1.00;;;12.10;99.90;;;;;;5074333;28;20198;-49
2023/10/16 14:00:29;;;;;;;6.30;1.07;;;12.20;99.90;;;;;;5081303;28;20699;-45
2023/10/16 14:02:57;;;;;;;0.80;0.50;;;12.30;99.90;;;;;;5081123;28;20276;-46
2023/10/16 14:05:26;;;;;;;2.10;0.53;;;12.20;99.90;;;;;;5088824;28;20194;-45
2023/10/16 14:07:55;;;;;;;4.17;1.20;;;12.20;99.90;;;;;;5081953;28;20665;-45
2023/10/16 14:10:23;;;;;;;3.50;0.70;;;12.10;99.90;;;;;;5089927;28;20209;-45
2023/10/16 14:12:58;;;;;;;2.10;0.70;;;12.00;99.90;;;;;;5068141;28;20205;-48
2023/10/16 14:15:32;;;;;;;0.47;0.30;;;12.00;99.90;;;;;;5074491;28;20591;-45
2023/10/16 14:18:00;;;;;;;3.40;0.63;;;12.00;99.90;;;;;;5079487;28;20830;-46
2023/10/16 14:20:36;;;;;;;6.20;0.90;;;12.10;99.90;;;;;;5085585;28;20210;-46
2023/10/16 14:23:10;;;;;;;3.07;0.70;;;12.10;99.90;;;;;;5081028;28;20814;-45
2023/10/16 14:25:41;;;;;;;1.40;0.73;;;12.30;99.90;;;;;;5084479;28;20676;-47
2023/10/16 14:28:25;;;;;;;1.33;0.50;;;12.30;99.90;;;;;;5066194;28;20198;-47
2023/10/16 14:30:54;;;;;;;2.40;0.80;;;12.30;99.90;;;;;;5079587;28;20305;-45
2023/10/16 14:33:22;;;;;;;1.03;0.67;;;12.10;99.90;;;;;;5085992;28;20190;-45
2023/10/16 14:35:49;;;;;;;3.57;1.10;;;11.90;99.90;;;;;;5085100;28;20666;-50